Oxford, Nebraska
Current Conditions -  °F | °C
As of 11:35 AM on Monday 24 Nov 2014 (Local Time) from KHDE Reporting Station
Clear Clear  
Wind Chill: 28°   Ceiling: Unl
Heat Index: 38°   Visibility: 10mi
Dew Point: 17°   Wind: 17mph
Humidity: 42%   Direction: 320°NW
Pressure: 29.85"   Gusts: 23mph
Location:  40.25°N, 99.63°W
Report Text: KHDE 241735Z AUTO 32015G20KT 10SM CLR 03/M09 A2985 RMK AO2 T00321086
Loading
Personal Weather Stations






























Interactive Weather Map New forecast layout! Learn more

10-Day Weather Forecast

Advertisements
Track Severe Weather on mobile